Time;durP1;ratioP1;P1;durP2;ratioP2;P2;SDS_P1;SDS_P2;PMS_P1;PMS_P2;Temp;Humidity;BMP_temperature;BMP_pressure;BME280_temperature;BME280_humidity;BME280_pressure;Samples;Min_cycle;Max_cycle;Signal;HPM_P1;HPM_P2
2022/11/01 00:02:11;;;;;;;0.40;0.20;;;24.30;58.80;;;;;;5074459;28;20180;-72
2022/11/01 00:04:38;;;;;;;0.20;0.20;;;24.50;57.20;;;;;;5073960;28;20563;-72
2022/11/01 00:07:06;;;;;;;0.20;0.20;;;24.30;54.60;;;;;;5064894;28;20275;-76
2022/11/01 00:09:33;;;;;;;3.20;0.60;;;24.20;50.70;;;;;;5073346;28;20195;-73
2022/11/01 00:12:01;;;;;;;0.30;0.30;;;24.20;51.20;;;;;;5073834;28;20697;-74
2022/11/01 00:14:28;;;;;;;0.80;0.30;;;24.40;51.20;;;;;;5073458;28;20199;-73
2022/11/01 00:16:55;;;;;;;0.20;0.20;;;24.40;50.80;;;;;;5074145;28;20668;-74
2022/11/01 00:19:23;;;;;;;0.77;0.20;;;25.10;54.50;;;;;;5074493;28;20175;-69
2022/11/01 00:21:50;;;;;;;0.60;0.40;;;25.40;53.20;;;;;;5073225;28;20180;-71
2022/11/01 00:24:18;;;;;;;2.10;0.37;;;24.90;45.80;;;;;;5074135;28;20227;-72
2022/11/01 00:26:45;;;;;;;0.20;0.20;;;24.80;46.70;;;;;;5074231;28;20261;-71
2022/11/01 00:29:13;;;;;;;2.83;0.30;;;24.70;47.70;;;;;;5073804;28;20179;-71
2022/11/01 00:31:41;;;;;;;2.23;0.33;;;24.70;46.60;;;;;;5073884;28;20661;-71
2022/11/01 00:34:09;;;;;;;1.27;0.30;;;24.70;45.10;;;;;;5073530;28;20214;-71
2022/11/01 00:36:40;;;;;;;0.40;0.40;;;25.10;49.50;;;;;;5073671;28;20182;-71
2022/11/01 00:39:07;;;;;;;0.90;0.50;;;25.10;46.80;;;;;;5073567;28;20206;-71
2022/11/01 00:41:35;;;;;;;2.20;0.30;;;25.30;46.10;;;;;;5073394;28;20176;-71
2022/11/01 00:44:03;;;;;;;2.23;0.30;;;25.10;45.30;;;;;;5073372;28;20223;-72
2022/11/01 00:46:30;;;;;;;0.37;0.20;;;25.50;49.20;;;;;;5073267;28;20186;-70
2022/11/01 00:48:58;;;;;;;0.93;0.30;;;24.70;44.60;;;;;;5073514;28;20183;-70
2022/11/01 00:51:26;;;;;;;0.20;0.20;;;23.90;47.20;;;;;;5073342;28;20180;-70
2022/11/01 00:53:53;;;;;;;0.50;0.30;;;24.30;46.90;;;;;;5072784;28;20253;-71
2022/11/01 00:56:21;;;;;;;0.20;0.20;;;24.10;42.90;;;;;;5072951;28;20229;-70
2022/11/01 00:58:48;;;;;;;0.80;0.30;;;24.80;47.60;;;;;;5073362;28;20228;-72
2022/11/01 01:01:15;;;;;;;0.20;0.20;;;25.00;46.60;;;;;;5072786;28;20715;-70
2022/11/01 01:03:43;;;;;;;0.40;0.40;;;25.10;44.30;;;;;;5072041;28;20200;-70
2022/11/01 01:06:10;;;;;;;0.30;0.30;;;25.20;44.80;;;;;;5072233;28;20184;-71
2022/11/01 01:08:37;;;;;;;0.20;0.20;;;25.60;43.60;;;;;;5071759;28;20187;-71
2022/11/01 01:11:05;;;;;;;0.20;0.20;;;25.30;41.00;;;;;;5072864;28;20176;-71
2022/11/01 01:13:32;;;;;;;0.30;0.30;;;24.20;42.30;;;;;;5072166;28;20175;-70
2022/11/01 01:16:00;;;;;;;0.53;0.20;;;24.60;46.10;;;;;;5072481;28;20191;-68
2022/11/01 01:18:27;;;;;;;1.03;0.20;;;25.30;44.10;;;;;;5072906;28;20258;-72
2022/11/01 01:21:02;;;;;;;0.80;0.27;;;25.30;43.00;;;;;;5072600;28;20653;-69
2022/11/01 01:23:29;;;;;;;0.20;0.20;;;25.20;44.60;;;;;;5072642;28;20742;-69
2022/11/01 01:25:57;;;;;;;0.20;0.20;;;25.40;44.40;;;;;;5072245;28;20175;-69
2022/11/01 01:28:24;;;;;;;0.17;0.17;;;25.40;41.60;;;;;;5072594;28;20180;-70
2022/11/01 01:30:52;;;;;;;2.00;0.20;;;25.60;44.10;;;;;;5072179;28;20777;-70
2022/11/01 01:33:19;;;;;;;0.77;0.20;;;26.20;46.70;;;;;;5072306;28;20608;-71
2022/11/01 01:35:46;;;;;;;0.17;0.17;;;26.40;45.90;;;;;;5072362;28;20187;-71
2022/11/01 01:38:14;;;;;;;0.10;0.10;;;26.10;47.70;;;;;;5072114;28;20217;-70
2022/11/01 01:40:41;;;;;;;0.40;0.23;;;25.50;43.70;;;;;;5072387;28;20179;-68
2022/11/01 01:43:12;;;;;;;0.50;0.30;;;25.60;46.60;;;;;;5072209;28;20196;-69
2022/11/01 01:45:41;;;;;;;0.57;0.30;;;25.70;48.00;;;;;;5072275;28;20176;-69
2022/11/01 01:48:14;;;;;;;0.70;0.20;;;25.50;47.00;;;;;;5072261;28;20186;-69
2022/11/01 01:50:52;;;;;;;1.90;0.23;;;25.70;50.70;;;;;;5060252;28;20184;-73
2022/11/01 01:53:43;;;;;;;2.00;0.23;;;26.00;55.60;;;;;;5072060;28;20175;-73
2022/11/01 01:56:39;;;;;;;1.53;0.20;;;25.90;37.80;;;;;;5072092;28;20256;-74
2022/11/01 01:59:10;;;;;;;2.27;0.30;;;25.90;36.50;;;;;;5067328;28;20188;-73
2022/11/01 02:01:39;;;;;;;1.23;0.30;;;25.90;36.70;;;;;;5071835;28;20227;-74
2022/11/01 02:04:23;;;;;;;2.00;0.30;;;26.40;41.00;;;;;;5069159;28;20230;-69
2022/11/01 02:06:51;;;;;;;0.90;0.30;;;25.70;37.20;;;;;;5071422;28;20183;-68
2022/11/01 02:09:19;;;;;;;0.37;0.20;;;25.80;43.50;;;;;;5086438;28;20202;-70
2022/11/01 02:11:46;;;;;;;0.37;0.23;;;26.00;45.90;;;;;;5066338;28;20259;-70
2022/11/01 02:14:14;;;;;;;1.23;0.47;;;25.30;46.60;;;;;;5072003;28;20168;-70
2022/11/01 02:16:53;;;;;;;2.17;0.37;;;25.30;49.70;;;;;;5071570;28;20175;-72
2022/11/01 02:19:42;;;;;;;2.27;0.40;;;24.80;47.90;;;;;;5070919;28;20680;-69
2022/11/01 02:22:24;;;;;;;2.53;0.23;;;24.90;49.10;;;;;;5071813;28;20182;-68
2022/11/01 02:25:10;;;;;;;0.20;0.20;;;25.40;46.50;;;;;;5071746;28;20212;-69
2022/11/01 02:28:08;;;;;;;0.20;0.20;;;24.40;46.10;;;;;;5071065;28;20180;-69
2022/11/01 02:30:57;;;;;;;0.20;0.20;;;24.10;41.20;;;;;;5071572;28;20186;-69
2022/11/01 02:33:54;;;;;;;0.83;0.20;;;24.20;38.70;;;;;;5071605;28;20649;-69
2022/11/01 02:36:47;;;;;;;0.30;0.30;;;23.80;43.20;;;;;;5070608;28;20202;-70
2022/11/01 02:39:25;;;;;;;1.77;0.30;;;23.50;47.90;;;;;;5031659;28;20646;-69
2022/11/01 02:42:18;;;;;;;2.10;0.40;;;24.20;50.10;;;;;;5054455;28;20198;-68
2022/11/01 02:44:56;;;;;;;0.83;0.40;;;25.20;44.90;;;;;;5086379;28;20272;-68
2022/11/01 02:47:25;;;;;;;0.40;0.30;;;25.20;46.80;;;;;;5071377;28;20182;-68
2022/11/01 02:49:58;;;;;;;0.30;0.30;;;25.60;48.40;;;;;;5071945;28;20183;-68
2022/11/01 02:52:28;;;;;;;0.60;0.40;;;25.50;42.80;;;;;;5073326;28;20183;-70
2022/11/01 02:55:28;;;;;;;0.20;0.20;;;25.90;42.60;;;;;;5073308;28;20617;-69
2022/11/01 02:58:28;;;;;;;3.40;0.33;;;25.70;41.80;;;;;;5071113;28;20195;-69
2022/11/01 03:00:55;;;;;;;0.20;0.20;;;25.10;42.70;;;;;;5072962;28;20230;-69
2022/11/01 03:03:25;;;;;;;0.30;0.30;;;23.90;38.50;;;;;;5072847;28;20278;-70
2022/11/01 03:06:04;;;;;;;0.37;0.30;;;23.90;41.40;;;;;;5073133;28;20198;-68
2022/11/01 03:08:41;;;;;;;0.20;0.20;;;24.40;41.20;;;;;;5073049;28;20180;-69
2022/11/01 03:11:20;;;;;;;0.40;0.30;;;24.60;43.60;;;;;;5073227;28;20186;-71
2022/11/01 03:13:59;;;;;;;1.13;0.30;;;24.30;40.40;;;;;;5073443;28;20209;-69
2022/11/01 03:16:47;;;;;;;0.93;0.20;;;23.80;42.00;;;;;;5088296;28;20225;-68
2022/11/01 03:19:51;;;;;;;0.40;0.40;;;24.40;45.00;;;;;;5073210;28;20180;-69
2022/11/01 03:22:27;;;;;;;0.70;0.33;;;24.70;46.00;;;;;;5072973;28;20707;-68
2022/11/01 03:25:03;;;;;;;1.03;0.33;;;24.40;43.90;;;;;;5072973;28;20633;-69
2022/11/01 03:27:36;;;;;;;0.20;0.20;;;24.50;43.70;;;;;;5073779;28;20225;-69
2022/11/01 03:30:10;;;;;;;0.20;0.20;;;24.70;43.90;;;;;;5075742;28;20221;-69
2022/11/01 03:32:51;;;;;;;2.10;0.20;;;24.60;45.00;;;;;;5076421;28;20182;-69
2022/11/01 03:35:36;;;;;;;0.30;0.30;;;24.90;43.10;;;;;;5075941;28;20184;-68
2022/11/01 03:38:12;;;;;;;0.20;0.20;;;24.80;45.20;;;;;;5076875;28;20175;-69
2022/11/01 03:40:46;;;;;;;0.37;0.20;;;25.10;45.60;;;;;;5076175;28;20192;-69
2022/11/01 03:43:16;;;;;;;0.20;0.20;;;25.10;45.00;;;;;;5075710;28;20203;-70
2022/11/01 03:45:44;;;;;;;0.43;0.40;;;25.00;43.80;;;;;;5076124;28;20647;-69
2022/11/01 03:48:12;;;;;;;0.30;0.30;;;24.70;46.40;;;;;;5075246;28;20194;-69
2022/11/01 03:50:45;;;;;;;0.27;0.27;;;24.90;45.20;;;;;;5076307;28;20646;-69
2022/11/01 03:53:13;;;;;;;0.30;0.30;;;25.10;47.50;;;;;;5076491;28;20186;-68
2022/11/01 03:55:40;;;;;;;0.20;0.20;;;25.00;45.90;;;;;;5076385;28;20554;-69
2022/11/01 03:58:07;;;;;;;1.10;0.20;;;25.20;48.10;;;;;;5076101;28;20538;-70
2022/11/01 04:00:39;;;;;;;2.33;0.30;;;25.50;45.50;;;;;;5075860;28;20327;-70
2022/11/01 04:03:07;;;;;;;1.60;0.20;;;25.30;41.10;;;;;;5076515;28;20180;-69
2022/11/01 04:05:36;;;;;;;0.30;0.30;;;25.20;43.20;;;;;;5076896;28;20245;-69
2022/11/01 04:08:04;;;;;;;1.03;0.30;;;25.30;40.90;;;;;;5076300;28;20198;-70
2022/11/01 04:10:32;;;;;;;0.20;0.20;;;25.30;43.10;;;;;;5076202;28;20245;-69
2022/11/01 04:13:01;;;;;;;0.57;0.30;;;25.20;43.30;;;;;;5076954;28;20645;-69
2022/11/01 04:21:20;;;;;;;0.23;0.20;;;25.50;37.10;;;;;;5080961;28;20198;-74
2022/11/01 04:23:48;;;;;;;0.10;0.10;;;25.20;36.10;;;;;;5095149;28;20219;-70
2022/11/01 04:26:17;;;;;;;0.37;0.20;;;24.50;37.10;;;;;;5075723;28;20180;-69
2022/11/01 04:29:07;;;;;;;0.73;0.20;;;24.00;36.70;;;;;;5076804;28;20175;-70
2022/11/01 04:31:36;;;;;;;0.20;0.20;;;23.40;38.20;;;;;;5075478;28;20563;-73
2022/11/01 04:34:05;;;;;;;0.77;0.33;;;23.10;40.80;;;;;;5075245;28;20262;-70
2022/11/01 04:36:32;;;;;;;0.53;0.30;;;22.70;42.90;;;;;;5076526;28;20208;-73
2022/11/01 04:38:59;;;;;;;0.30;0.30;;;22.70;46.40;;;;;;5076624;28;20182;-73
2022/11/01 04:41:28;;;;;;;0.40;0.27;;;22.50;45.60;;;;;;5076741;28;20257;-72
2022/11/01 04:43:58;;;;;;;0.50;0.23;;;22.20;46.80;;;;;;5094006;28;20220;-71
2022/11/01 04:46:29;;;;;;;1.97;0.40;;;22.10;48.20;;;;;;5076802;28;20294;-73
2022/11/01 04:48:57;;;;;;;1.90;0.30;;;21.60;67.20;;;;;;5070892;28;20252;-74
2022/11/01 04:51:25;;;;;;;0.40;0.40;;;21.20;93.40;;;;;;5077010;28;20266;-73
2022/11/01 04:53:52;;;;;;;0.30;0.30;;;21.10;97.50;;;;;;5076292;28;20188;-73
2022/11/01 04:56:20;;;;;;;3.40;0.40;;;21.00;90.40;;;;;;5092294;28;20273;-73
2022/11/01 04:58:47;;;;;;;0.40;0.40;;;20.70;99.90;;;;;;5077461;28;20211;-72
2022/11/01 05:01:15;;;;;;;0.93;0.30;;;20.00;99.90;;;;;;5073227;28;20219;-69
2022/11/01 05:03:42;;;;;;;0.40;0.30;;;19.70;99.90;;;;;;5076382;28;20208;-69
2022/11/01 05:06:10;;;;;;;1.00;0.40;;;19.60;99.90;;;;;;5077449;28;20655;-69
2022/11/01 05:08:40;;;;;;;0.30;0.30;;;19.70;99.90;;;;;;5077562;28;20237;-69
2022/11/01 05:11:08;;;;;;;0.30;0.30;;;19.70;99.90;;;;;;5092411;28;20247;-70
2022/11/01 05:13:35;;;;;;;0.60;0.40;;;19.70;99.90;;;;;;5077854;28;20205;-69
2022/11/01 05:16:03;;;;;;;0.40;0.30;;;19.50;99.90;;;;;;5077800;28;20176;-69
2022/11/01 05:18:31;;;;;;;1.07;0.30;;;19.30;99.90;;;;;;5077532;28;20180;-70
2022/11/01 05:20:58;;;;;;;0.83;0.40;;;19.10;99.90;;;;;;5077251;28;20184;-69
2022/11/01 05:23:26;;;;;;;0.30;0.30;;;19.00;99.90;;;;;;5092895;28;20215;-69
2022/11/01 05:25:54;;;;;;;0.50;0.40;;;19.10;99.90;;;;;;5077073;28;20266;-70
2022/11/01 05:28:22;;;;;;;0.30;0.30;;;18.90;99.90;;;;;;5075932;28;20180;-69
2022/11/01 05:30:49;;;;;;;0.40;0.40;;;19.00;99.90;;;;;;5073873;28;20233;-69
2022/11/01 05:33:17;;;;;;;2.50;0.47;;;19.00;99.90;;;;;;5074759;28;20206;-70
2022/11/01 05:35:45;;;;;;;0.30;0.30;;;19.10;99.90;;;;;;5077143;28;20176;-70
2022/11/01 05:38:12;;;;;;;0.60;0.47;;;19.10;99.90;;;;;;5076413;28;20252;-69
2022/11/01 05:40:39;;;;;;;1.60;0.40;;;19.30;99.90;;;;;;5078133;28;20180;-70
2022/11/01 05:43:07;;;;;;;0.70;0.40;;;19.10;99.90;;;;;;5092316;28;20233;-70
2022/11/01 05:45:37;;;;;;;1.83;0.50;;;18.80;99.90;;;;;;5077143;28;20191;-70
2022/11/01 05:48:05;;;;;;;0.67;0.50;;;18.70;99.90;;;;;;5068577;28;20176;-69
2022/11/01 05:50:32;;;;;;;0.30;0.30;;;18.70;99.90;;;;;;5056787;28;20184;-69
2022/11/01 05:53:07;;;;;;;0.40;0.40;;;18.70;99.90;;;;;;5056402;28;20173;-70
2022/11/01 05:55:35;;;;;;;2.97;0.50;;;18.60;99.90;;;;;;5055426;28;20181;-69
2022/11/01 05:58:03;;;;;;;0.60;0.40;;;18.60;99.90;;;;;;5056665;28;20184;-70
2022/11/01 06:00:32;;;;;;;0.30;0.30;;;18.60;99.90;;;;;;5054027;28;20232;-70
2022/11/01 06:03:00;;;;;;;1.80;0.40;;;18.60;99.90;;;;;;5054735;28;20257;-70
2022/11/01 06:05:29;;;;;;;2.67;0.30;;;18.70;99.90;;;;;;5056426;28;20182;-70
2022/11/01 06:07:57;;;;;;;0.90;0.30;;;18.70;99.90;;;;;;5055702;28;20176;-69
2022/11/01 06:10:25;;;;;;;0.37;0.37;;;18.80;99.90;;;;;;5053676;28;20173;-70
2022/11/01 06:12:52;;;;;;;0.30;0.30;;;18.80;99.90;;;;;;5053683;28;20174;-71
2022/11/01 06:15:19;;;;;;;0.30;0.30;;;19.40;99.90;;;;;;5053847;28;20188;-70
2022/11/01 06:17:47;;;;;;;0.33;0.30;;;19.70;99.90;;;;;;5054361;28;20262;-69
2022/11/01 06:20:14;;;;;;;1.17;0.47;;;20.00;99.90;;;;;;5059817;28;20185;-70
2022/11/01 06:22:41;;;;;;;0.30;0.30;;;20.30;99.90;;;;;;5073673;28;20179;-69
2022/11/01 06:25:09;;;;;;;1.60;0.40;;;20.30;99.90;;;;;;5062856;28;20216;-68
2022/11/01 06:27:37;;;;;;;0.20;0.20;;;20.60;99.90;;;;;;5075344;28;20590;-70
2022/11/01 06:30:11;;;;;;;0.40;0.40;;;20.70;99.90;;;;;;5076779;28;20195;-70
2022/11/01 06:32:38;;;;;;;0.30;0.30;;;20.80;99.90;;;;;;5076336;28;20198;-71
2022/11/01 06:35:06;;;;;;;0.30;0.30;;;20.90;99.90;;;;;;5076726;28;20183;-70
2022/11/01 06:37:34;;;;;;;0.47;0.30;;;20.70;99.90;;;;;;5077270;28;20198;-70
2022/11/01 06:40:05;;;;;;;0.40;0.40;;;20.80;99.90;;;;;;5076633;28;20189;-70
2022/11/01 06:42:34;;;;;;;0.27;0.27;;;20.60;99.90;;;;;;5067736;28;20222;-71
2022/11/01 06:45:01;;;;;;;2.10;0.40;;;20.30;99.90;;;;;;5050670;28;20222;-70
2022/11/01 06:47:29;;;;;;;0.30;0.30;;;20.30;99.90;;;;;;5091800;28;20192;-69
2022/11/01 06:49:56;;;;;;;0.33;0.30;;;20.40;99.90;;;;;;5074810;28;20703;-69
2022/11/01 06:52:25;;;;;;;0.50;0.30;;;20.30;99.90;;;;;;5075890;28;20184;-71
2022/11/01 06:54:52;;;;;;;0.90;0.43;;;20.40;99.90;;;;;;5075029;28;20194;-71
2022/11/01 06:57:19;;;;;;;0.53;0.30;;;20.40;99.90;;;;;;5075847;28;20172;-70
2022/11/01 06:59:50;;;;;;;0.30;0.30;;;20.60;99.90;;;;;;5074620;28;20176;-71
2022/11/01 07:02:20;;;;;;;0.33;0.30;;;20.60;99.90;;;;;;5075159;28;20183;-69
2022/11/01 07:04:47;;;;;;;0.83;0.30;;;20.10;99.90;;;;;;5074382;28;20211;-70
2022/11/01 07:07:15;;;;;;;0.50;0.40;;;19.70;99.90;;;;;;5076367;28;20626;-69
2022/11/01 07:09:42;;;;;;;0.33;0.33;;;19.50;99.90;;;;;;5077674;28;20185;-71
2022/11/01 07:12:09;;;;;;;0.40;0.40;;;19.40;99.90;;;;;;5068884;28;20181;-69
2022/11/01 07:14:37;;;;;;;3.30;0.40;;;19.40;99.90;;;;;;5108769;28;20285;-71
2022/11/01 07:17:04;;;;;;;0.50;0.30;;;19.30;99.90;;;;;;5077552;28;20180;-69
2022/11/01 07:19:32;;;;;;;0.93;0.30;;;19.30;99.90;;;;;;5078173;28;20191;-70
2022/11/01 07:21:59;;;;;;;0.97;0.40;;;19.40;99.90;;;;;;5077351;28;20180;-70
2022/11/01 07:24:26;;;;;;;3.13;0.43;;;19.50;99.90;;;;;;5077264;28;20251;-70
2022/11/01 07:26:54;;;;;;;0.73;0.30;;;19.30;99.90;;;;;;5076898;28;20184;-70
2022/11/01 07:29:21;;;;;;;2.17;0.50;;;19.20;99.90;;;;;;5076484;28;20184;-70
2022/11/01 07:31:48;;;;;;;0.60;0.60;;;19.30;99.90;;;;;;5076268;28;20180;-70
2022/11/01 07:34:16;;;;;;;0.87;0.60;;;19.60;99.90;;;;;;5076190;28;20195;-69
2022/11/01 07:36:43;;;;;;;0.87;0.60;;;19.80;99.90;;;;;;5076783;28;20549;-70
2022/11/01 07:39:11;;;;;;;0.50;0.50;;;19.80;99.90;;;;;;5066092;28;20636;-71
2022/11/01 07:41:38;;;;;;;1.70;0.70;;;19.60;99.90;;;;;;5056517;28;20189;-71
2022/11/01 07:44:05;;;;;;;1.03;0.47;;;19.40;99.90;;;;;;5037804;28;20679;-70
2022/11/01 07:46:34;;;;;;;1.03;0.40;;;19.40;99.90;;;;;;5061816;28;20188;-71
2022/11/01 07:49:02;;;;;;;0.40;0.40;;;19.50;99.90;;;;;;5077175;28;20668;-70
2022/11/01 07:51:29;;;;;;;0.50;0.50;;;19.50;99.90;;;;;;5092865;28;20188;-71
2022/11/01 07:53:57;;;;;;;0.57;0.30;;;19.60;99.90;;;;;;5077038;28;20181;-71
2022/11/01 07:56:25;;;;;;;0.30;0.30;;;19.60;99.90;;;;;;5077806;28;20188;-69
2022/11/01 07:58:52;;;;;;;1.77;0.40;;;19.60;99.90;;;;;;5078268;28;20267;-70
2022/11/01 08:01:19;;;;;;;2.40;0.40;;;19.60;99.90;;;;;;5078701;28;20252;-70
2022/11/01 08:03:48;;;;;;;4.53;0.70;;;19.50;99.90;;;;;;5076050;28;20310;-69
2022/11/01 08:06:15;;;;;;;3.40;0.77;;;19.30;99.90;;;;;;5077216;28;20180;-69
2022/11/01 08:08:44;;;;;;;2.27;0.70;;;19.00;99.90;;;;;;5076623;28;20188;-69
2022/11/01 08:11:12;;;;;;;1.60;0.77;;;18.80;99.90;;;;;;5076933;28;20168;-70
2022/11/01 08:13:39;;;;;;;4.40;0.50;;;18.40;99.90;;;;;;5064396;28;20699;-70
2022/11/01 08:16:07;;;;;;;0.83;0.40;;;18.00;99.90;;;;;;5067816;28;20286;-70
2022/11/01 08:18:47;;;;;;;2.10;0.50;;;17.70;99.90;;;;;;5075646;28;20191;-70
2022/11/01 08:21:17;;;;;;;1.07;0.40;;;17.30;99.90;;;;;;5076170;28;20183;-68
2022/11/01 08:23:47;;;;;;;1.33;0.37;;;17.00;99.90;;;;;;5076653;28;20569;-70
2022/11/01 08:26:15;;;;;;;0.40;0.40;;;16.80;99.90;;;;;;5077032;28;20200;-70
2022/11/01 08:28:43;;;;;;;0.40;0.40;;;16.80;99.90;;;;;;5076492;28;20176;-70
2022/11/01 08:31:11;;;;;;;1.03;0.40;;;16.90;99.90;;;;;;5076996;28;20175;-69
2022/11/01 08:33:38;;;;;;;0.33;0.33;;;16.90;99.90;;;;;;5092353;28;20199;-69
2022/11/01 08:36:06;;;;;;;1.13;0.40;;;16.80;99.90;;;;;;5075991;28;20195;-70
2022/11/01 08:38:33;;;;;;;0.30;0.30;;;16.80;99.90;;;;;;5076785;28;20172;-71
2022/11/01 08:41:01;;;;;;;0.30;0.30;;;16.80;99.90;;;;;;5077286;28;20681;-70
2022/11/01 08:43:29;;;;;;;2.33;0.47;;;16.80;99.90;;;;;;5076611;28;20211;-69
2022/11/01 08:45:58;;;;;;;3.30;0.50;;;16.70;99.90;;;;;;5092376;28;20195;-69
2022/11/01 08:48:27;;;;;;;1.80;0.50;;;16.60;99.90;;;;;;5076013;28;20207;-69
2022/11/01 08:50:55;;;;;;;1.90;0.40;;;16.50;99.90;;;;;;5092165;28;20644;-69
2022/11/01 08:53:23;;;;;;;0.40;0.40;;;16.50;99.90;;;;;;5076470;28;20232;-69
2022/11/01 08:55:57;;;;;;;0.90;0.43;;;16.40;99.90;;;;;;5076417;28;20180;-69
2022/11/01 08:58:24;;;;;;;0.50;0.30;;;16.40;99.90;;;;;;5059249;28;20184;-69
2022/11/01 09:00:53;;;;;;;0.73;0.40;;;16.40;99.90;;;;;;5055534;28;20670;-69
2022/11/01 09:03:20;;;;;;;2.57;0.60;;;16.40;99.90;;;;;;5055271;28;20211;-69
2022/11/01 09:05:48;;;;;;;0.67;0.50;;;16.40;99.90;;;;;;5074855;28;20239;-70
2022/11/01 09:08:15;;;;;;;0.53;0.30;;;16.40;99.90;;;;;;5075955;28;20235;-71
2022/11/01 09:10:43;;;;;;;0.57;0.40;;;16.50;99.90;;;;;;5076171;28;20230;-70
2022/11/01 09:13:13;;;;;;;1.23;0.30;;;16.40;99.90;;;;;;5075569;28;20182;-70
2022/11/01 09:15:42;;;;;;;3.80;0.50;;;16.40;99.90;;;;;;5076198;28;20198;-69
2022/11/01 09:18:11;;;;;;;1.00;0.93;;;16.40;99.90;;;;;;5069895;28;20250;-69
2022/11/01 09:20:38;;;;;;;0.40;0.40;;;16.40;99.90;;;;;;5065193;28;20198;-70
2022/11/01 09:23:06;;;;;;;0.30;0.30;;;16.40;99.90;;;;;;5075269;28;20182;-70
2022/11/01 09:25:34;;;;;;;0.50;0.40;;;16.40;99.90;;;;;;5075793;28;20184;-69
2022/11/01 09:28:01;;;;;;;0.30;0.30;;;16.50;99.90;;;;;;5075776;28;20193;-70
2022/11/01 09:30:29;;;;;;;0.83;0.47;;;16.50;99.90;;;;;;5075896;28;20274;-69
2022/11/01 09:32:56;;;;;;;0.40;0.40;;;16.50;99.90;;;;;;5075261;28;20186;-69
2022/11/01 09:35:23;;;;;;;2.30;0.60;;;16.50;99.90;;;;;;5071625;28;20184;-71
2022/11/01 09:37:58;;;;;;;0.73;0.50;;;16.50;99.90;;;;;;5064929;28;20652;-70
2022/11/01 09:40:34;;;;;;;0.80;0.40;;;16.50;99.90;;;;;;5067945;28;20200;-69
2022/11/01 09:43:05;;;;;;;1.00;0.43;;;16.40;99.90;;;;;;5058389;28;20212;-69
2022/11/01 09:45:34;;;;;;;0.53;0.40;;;16.50;99.90;;;;;;5074637;28;20184;-70
2022/11/01 09:48:04;;;;;;;0.40;0.40;;;16.50;99.90;;;;;;5072937;28;20184;-68
2022/11/01 09:50:35;;;;;;;0.63;0.50;;;16.40;99.90;;;;;;5071168;28;20181;-68
2022/11/01 09:53:09;;;;;;;0.93;0.60;;;16.50;99.90;;;;;;5056672;28;20259;-68
2022/11/01 09:56:09;;;;;;;0.67;0.50;;;16.50;99.90;;;;;;5061631;28;20182;-67
2022/11/01 09:58:45;;;;;;;1.17;0.50;;;16.40;99.90;;;;;;5074987;28;20241;-68
2022/11/01 10:01:39;;;;;;;1.97;0.50;;;16.30;99.90;;;;;;5075003;28;20733;-69
2022/11/01 10:04:22;;;;;;;0.40;0.40;;;16.20;99.90;;;;;;5059452;28;20239;-68
2022/11/01 10:07:16;;;;;;;2.40;0.40;;;16.20;99.90;;;;;;5057206;28;20190;-69
2022/11/01 10:10:20;;;;;;;1.90;0.40;;;16.20;99.90;;;;;;5035279;28;20236;-68
2022/11/01 10:12:50;;;;;;;0.40;0.40;;;16.10;99.90;;;;;;5033141;28;20189;-69
2022/11/01 10:16:00;;;;;;;2.50;0.50;;;16.10;99.90;;;;;;5042535;28;20191;-69
2022/11/01 10:18:36;;;;;;;0.87;0.47;;;16.10;99.90;;;;;;5069337;28;20656;-68
2022/11/01 10:21:14;;;;;;;0.40;0.40;;;16.00;99.90;;;;;;5089543;28;20226;-69
2022/11/01 10:23:52;;;;;;;0.57;0.50;;;16.00;99.90;;;;;;5062647;28;20258;-69
2022/11/01 10:26:26;;;;;;;1.17;0.50;;;16.00;99.90;;;;;;5074347;28;20185;-69
2022/11/01 10:29:22;;;;;;;2.03;0.50;;;15.90;99.90;;;;;;5073819;28;20274;-69
2022/11/01 10:31:54;;;;;;;1.17;0.47;;;15.90;99.90;;;;;;5074358;28;20179;-69
2022/11/01 10:34:29;;;;;;;0.30;0.30;;;15.80;99.90;;;;;;5078217;28;20179;-68
2022/11/01 10:37:11;;;;;;;0.97;0.40;;;15.70;99.90;;;;;;5075979;28;20184;-69
2022/11/01 10:39:49;;;;;;;0.40;0.40;;;15.60;99.90;;;;;;5075666;28;20168;-68
2022/11/01 10:42:18;;;;;;;2.13;0.40;;;15.70;99.90;;;;;;5074707;28;20224;-69
2022/11/01 10:44:54;;;;;;;0.30;0.30;;;15.60;99.90;;;;;;5073258;28;20214;-68
2022/11/01 10:47:23;;;;;;;1.17;0.40;;;15.60;99.90;;;;;;5073769;28;20528;-68
2022/11/01 10:50:28;;;;;;;1.83;0.40;;;15.60;99.90;;;;;;5075338;28;20175;-68
2022/11/01 10:53:03;;;;;;;3.47;0.73;;;15.50;99.90;;;;;;5052892;28;20194;-69
2022/11/01 10:55:46;;;;;;;0.40;0.40;;;15.50;99.90;;;;;;5068569;28;20201;-69
2022/11/01 10:58:33;;;;;;;0.53;0.40;;;15.40;99.90;;;;;;5075759;28;20633;-68
2022/11/01 11:01:06;;;;;;;0.73;0.40;;;15.30;99.90;;;;;;5075242;28;20236;-68
2022/11/01 11:03:34;;;;;;;0.50;0.50;;;15.20;99.90;;;;;;5076345;28;20218;-68
2022/11/01 11:06:08;;;;;;;0.50;0.40;;;15.20;99.90;;;;;;5075986;28;20187;-68
2022/11/01 11:08:40;;;;;;;0.77;0.37;;;15.10;99.90;;;;;;5074909;28;20239;-68
2022/11/01 11:11:18;;;;;;;1.03;0.83;;;15.00;99.90;;;;;;5075463;28;20189;-69
2022/11/01 11:13:53;;;;;;;0.70;0.40;;;15.00;99.90;;;;;;5074158;28;20619;-69
2022/11/01 11:16:52;;;;;;;2.20;0.40;;;15.00;99.90;;;;;;5072607;28;20172;-69
2022/11/01 11:19:30;;;;;;;0.63;0.30;;;14.90;99.90;;;;;;5069932;28;20559;-69
2022/11/01 11:22:00;;;;;;;0.40;0.40;;;14.70;99.90;;;;;;5072462;28;20684;-68
2022/11/01 11:24:33;;;;;;;0.30;0.30;;;14.70;99.90;;;;;;5072622;28;20304;-68
2022/11/01 11:27:03;;;;;;;0.47;0.30;;;14.60;99.90;;;;;;5032879;28;20180;-69
2022/11/01 11:29:47;;;;;;;1.17;0.30;;;14.60;99.90;;;;;;5045094;28;20542;-69
2022/11/01 11:32:22;;;;;;;0.30;0.30;;;14.60;99.90;;;;;;5073045;28;20175;-69
2022/11/01 11:35:07;;;;;;;0.40;0.40;;;14.50;99.90;;;;;;5072450;28;20213;-68
2022/11/01 11:37:37;;;;;;;0.40;0.40;;;14.50;99.90;;;;;;5072897;28;20650;-69
2022/11/01 11:40:41;;;;;;;0.40;0.37;;;14.40;99.90;;;;;;5072783;28;20717;-68
2022/11/01 11:43:35;;;;;;;0.37;0.37;;;14.40;99.90;;;;;;5073075;28;20174;-68
2022/11/01 11:46:22;;;;;;;1.23;0.40;;;14.30;99.90;;;;;;5072653;28;20668;-67
2022/11/01 11:48:59;;;;;;;0.40;0.40;;;14.30;99.90;;;;;;5073016;28;20197;-68
2022/11/01 11:51:36;;;;;;;0.70;0.50;;;14.20;99.90;;;;;;5076601;28;20173;-70
2022/11/01 11:54:20;;;;;;;0.40;0.40;;;14.10;99.90;;;;;;5076130;28;20671;-68
2022/11/01 11:56:52;;;;;;;0.30;0.30;;;14.10;99.90;;;;;;5075920;28;20177;-70
2022/11/01 11:59:31;;;;;;;0.40;0.40;;;14.00;99.90;;;;;;5075615;28;20239;-69
2022/11/01 12:02:02;;;;;;;0.30;0.30;;;14.00;99.90;;;;;;5059168;28;20194;-70
2022/11/01 12:04:53;;;;;;;0.40;0.40;;;14.00;99.90;;;;;;5056207;28;20219;-70
2022/11/01 12:07:48;;;;;;;1.27;0.40;;;13.90;99.90;;;;;;5051357;28;20191;-69
2022/11/01 12:10:33;;;;;;;0.40;0.40;;;13.90;99.90;;;;;;5055358;28;20228;-70
2022/11/01 12:13:03;;;;;;;0.63;0.40;;;13.80;99.90;;;;;;5057483;28;20188;-70
2022/11/01 12:15:33;;;;;;;0.43;0.43;;;13.80;99.90;;;;;;5056114;28;20281;-70
2022/11/01 12:18:18;;;;;;;0.40;0.40;;;13.80;99.90;;;;;;5055180;28;20200;-70
2022/11/01 12:20:52;;;;;;;0.40;0.40;;;13.70;99.90;;;;;;5055550;28;20200;-70
2022/11/01 12:23:37;;;;;;;0.80;0.40;;;13.70;99.90;;;;;;5055577;28;20178;-70
2022/11/01 12:26:10;;;;;;;0.60;0.50;;;13.60;99.90;;;;;;5069147;28;20208;-68
2022/11/01 12:28:51;;;;;;;0.60;0.40;;;13.60;99.90;;;;;;5075805;28;20228;-70
2022/11/01 12:31:21;;;;;;;0.40;0.40;;;13.60;99.90;;;;;;5035528;28;20187;-70
2022/11/01 12:33:54;;;;;;;0.40;0.40;;;13.60;99.90;;;;;;5035467;28;20182;-69
2022/11/01 12:36:49;;;;;;;0.40;0.40;;;13.60;99.90;;;;;;5069545;28;20182;-70
2022/11/01 12:39:33;;;;;;;0.40;0.40;;;13.60;99.90;;;;;;5072217;28;20192;-70
2022/11/01 12:42:03;;;;;;;1.10;0.40;;;13.60;99.90;;;;;;5075232;28;20232;-69
2022/11/01 12:44:47;;;;;;;0.30;0.30;;;13.60;99.90;;;;;;5074696;28;20260;-69
2022/11/01 12:47:51;;;;;;;1.73;0.47;;;13.50;99.90;;;;;;5074363;28;20181;-69
2022/11/01 12:50:21;;;;;;;2.00;0.30;;;13.50;99.90;;;;;;5073793;28;20228;-69
2022/11/01 12:53:14;;;;;;;0.40;0.40;;;13.50;99.90;;;;;;5074910;28;20209;-69
2022/11/01 12:55:43;;;;;;;0.40;0.40;;;13.50;99.90;;;;;;5071428;28;20285;-70
2022/11/01 12:58:22;;;;;;;0.53;0.43;;;13.50;99.90;;;;;;5074634;28;20193;-69
2022/11/01 13:00:58;;;;;;;0.37;0.37;;;13.60;99.90;;;;;;5074007;28;20697;-70
2022/11/01 13:03:49;;;;;;;0.77;0.40;;;13.60;99.90;;;;;;5074629;28;20660;-70
2022/11/01 13:06:43;;;;;;;0.30;0.30;;;13.60;99.90;;;;;;5074508;28;20912;-69
2022/11/01 13:09:23;;;;;;;0.40;0.40;;;13.70;99.90;;;;;;5074295;28;20550;-69
2022/11/01 13:12:11;;;;;;;0.30;0.30;;;13.60;99.90;;;;;;5074739;28;20187;-70
2022/11/01 13:14:54;;;;;;;1.07;0.40;;;13.60;99.90;;;;;;5065167;28;20181;-69
2022/11/01 13:17:47;;;;;;;0.33;0.33;;;13.60;99.90;;;;;;5053212;28;20187;-67
2022/11/01 13:20:21;;;;;;;0.57;0.40;;;13.60;99.90;;;;;;5052605;28;20222;-69
2022/11/01 13:22:51;;;;;;;0.30;0.30;;;13.60;99.90;;;;;;5055996;28;20860;-70
2022/11/01 13:25:22;;;;;;;1.70;0.33;;;13.60;99.90;;;;;;5061542;28;20222;-69